Time;durP1;ratioP1;P1;durP2;ratioP2;P2;SDS_P1;SDS_P2;PMS_P1;PMS_P2;Temp;Humidity;BMP_temperature;BMP_pressure;BME280_temperature;BME280_humidity;BME280_pressure;Samples;Min_cycle;Max_cycle;Signal;HPM_P1;HPM_P2
2023/01/27 00:00:11;;;;;;;23.42;12.50;;;4.00;99.90;;;;;;5062833;28;20044;-84
2023/01/27 00:02:43;;;;;;;21.00;12.70;;;4.00;99.90;;;;;;5056298;28;20481;-84
2023/01/27 00:08:53;;;;;;;21.50;12.50;;;4.10;99.90;;;;;;5117367;28;20073;-84
2023/01/27 00:14:22;;;;;;;23.02;12.85;;;4.00;99.90;;;;;;5117200;28;20046;-84
2023/01/27 00:27:22;;;;;;;21.13;12.70;;;4.00;99.90;;;;;;5094748;28;20055;-84
2023/01/27 00:29:48;;;;;;;18.30;12.05;;;4.00;99.90;;;;;;5091759;28;20082;-84
2023/01/27 00:34:58;;;;;;;16.08;10.40;;;4.10;99.90;;;;;;5070279;28;20138;-84
2023/01/27 00:37:25;;;;;;;15.63;9.75;;;4.00;99.90;;;;;;5048959;28;20083;-83
2023/01/27 00:39:51;;;;;;;15.65;9.63;;;4.00;99.90;;;;;;5081886;28;20104;-84
2023/01/27 00:42:16;;;;;;;15.30;9.48;;;4.10;99.90;;;;;;5064791;28;20040;-83
2023/01/27 00:45:47;;;;;;;14.15;9.15;;;4.10;99.90;;;;;;5065171;28;20121;-83
2023/01/27 00:51:12;;;;;;;13.68;8.88;;;4.00;99.90;;;;;;5116303;28;20096;-84
2023/01/27 00:53:39;;;;;;;17.30;9.05;;;4.00;99.90;;;;;;5081824;28;20050;-84
2023/01/27 00:56:05;;;;;;;15.82;9.68;;;4.00;99.90;;;;;;5081918;28;20163;-84
2023/01/27 01:02:16;;;;;;;14.93;9.82;;;4.10;99.90;;;;;;5116261;28;20078;-84
2023/01/27 01:04:42;;;;;;;16.30;10.35;;;4.00;99.90;;;;;;5090452;28;20474;-84
2023/01/27 01:07:07;;;;;;;17.40;11.73;;;4.10;99.90;;;;;;5036195;28;20043;-85
2023/01/27 01:09:33;;;;;;;20.67;10.88;;;4.10;99.90;;;;;;5065131;27;20552;-85
2023/01/27 01:11:59;;;;;;;15.10;10.20;;;3.90;99.90;;;;;;5084440;27;20039;-85
2023/01/27 01:14:42;;;;;;;15.82;10.25;;;4.00;99.90;;;;;;5102318;27;20481;-85
2023/01/27 01:17:32;;;;;;;17.60;10.55;;;4.00;99.90;;;;;;5101509;27;20108;-85
2023/01/27 01:20:04;;;;;;;16.77;10.88;;;4.10;99.90;;;;;;5095175;28;20055;-85
2023/01/27 01:22:29;;;;;;;18.77;11.88;;;4.00;99.90;;;;;;5084957;28;20055;-85
2023/01/27 01:25:13;;;;;;;18.92;11.63;;;4.00;99.90;;;;;;5043929;28;20044;-85
2023/01/27 01:27:44;;;;;;;19.98;12.05;;;4.00;99.90;;;;;;5072417;28;20052;-84
2023/01/27 01:30:10;;;;;;;20.25;11.38;;;4.00;99.90;;;;;;5088323;28;20070;-84
2023/01/27 01:32:36;;;;;;;15.75;9.80;;;4.00;99.90;;;;;;5094157;28;20040;-84
2023/01/27 01:35:02;;;;;;;18.02;10.35;;;4.00;99.90;;;;;;5077534;28;20043;-85
2023/01/27 01:37:28;;;;;;;13.18;8.60;;;4.00;99.90;;;;;;5094380;28;20044;-84
2023/01/27 01:40:30;;;;;;;17.02;9.40;;;4.00;99.90;;;;;;5077422;28;20540;-84
2023/01/27 01:46:38;;;;;;;15.93;9.10;;;4.00;99.90;;;;;;5074768;28;20081;-84
2023/01/27 01:49:07;;;;;;;17.33;9.20;;;3.90;99.90;;;;;;5057774;28;20374;-84
2023/01/27 01:51:35;;;;;;;16.42;9.43;;;4.00;99.90;;;;;;5074008;28;20047;-84
2023/01/27 01:54:05;;;;;;;17.38;8.48;;;3.90;99.90;;;;;;5064079;28;20134;-85
2023/01/27 02:00:14;;;;;;;15.48;7.88;;;4.00;99.90;;;;;;5054349;28;20052;-85
2023/01/27 02:02:40;;;;;;;15.98;8.00;;;3.90;99.90;;;;;;5057008;28;20047;-84
2023/01/27 02:08:50;;;;;;;12.33;6.20;;;3.90;99.90;;;;;;5074322;28;20467;-85
2023/01/27 02:15:03;;;;;;;11.95;5.22;;;4.00;99.90;;;;;;5074153;28;20032;-85
2023/01/27 02:21:40;;;;;;;9.13;5.40;;;4.00;99.90;;;;;;5074100;28;20090;-84
2023/01/27 02:28:19;;;;;;;8.95;4.60;;;4.00;99.90;;;;;;5086521;28;20144;-84
2023/01/27 02:30:45;;;;;;;9.40;4.18;;;4.00;99.90;;;;;;5076467;28;20131;-84
2023/01/27 02:33:12;;;;;;;7.82;4.72;;;3.90;99.90;;;;;;5059781;28;20102;-84
2023/01/27 02:35:50;;;;;;;7.53;4.10;;;4.00;99.90;;;;;;5077243;28;20047;-84
2023/01/27 02:42:09;;;;;;;5.53;3.20;;;4.00;99.90;;;;;;5094087;28;20062;-84
2023/01/27 02:48:17;;;;;;;5.03;2.80;;;4.10;99.90;;;;;;5093958;28;20103;-84
2023/01/27 02:54:29;;;;;;;4.05;2.40;;;4.10;99.90;;;;;;5093912;28;20121;-84
2023/01/27 02:56:55;;;;;;;7.38;3.22;;;4.10;99.90;;;;;;5059361;28;20090;-84
2023/01/27 02:59:20;;;;;;;4.03;2.47;;;4.10;99.90;;;;;;5070498;28;20098;-85
2023/01/27 03:01:48;;;;;;;2.17;1.75;;;4.10;99.90;;;;;;5093726;28;20393;-84
2023/01/27 03:08:25;;;;;;;4.00;2.47;;;4.10;99.90;;;;;;5093673;28;20495;-84
2023/01/27 03:20:23;;;;;;;3.55;2.28;;;4.10;99.90;;;;;;5080995;28;20043;-84
2023/01/27 03:26:30;;;;;;;3.08;2.47;;;4.10;99.90;;;;;;5091945;28;20035;-84
2023/01/27 03:29:54;;;;;;;4.07;2.40;;;4.10;99.90;;;;;;5055669;28;20489;-84
2023/01/27 03:32:24;;;;;;;5.40;2.38;;;4.10;99.90;;;;;;5075319;28;20489;-85
2023/01/27 03:34:50;;;;;;;2.95;2.40;;;4.10;99.90;;;;;;5075285;28;20092;-85
2023/01/27 03:47:16;;;;;;;4.78;2.38;;;4.10;99.90;;;;;;5075485;28;20063;-84
2023/01/27 03:49:42;;;;;;;2.78;2.10;;;4.00;99.90;;;;;;5026243;28;20055;-84
2023/01/27 03:52:21;;;;;;;3.13;1.98;;;4.10;99.90;;;;;;5025951;28;20036;-85
2023/01/27 03:58:35;;;;;;;2.83;2.28;;;4.00;99.90;;;;;;5093089;28;20119;-84
2023/01/27 04:01:02;;;;;;;3.80;2.08;;;4.00;99.90;;;;;;5075704;28;20090;-84
2023/01/27 04:10:24;;;;;;;4.30;2.78;;;4.00;99.90;;;;;;5092910;28;20035;-84
2023/01/27 04:16:37;;;;;;;4.43;2.38;;;4.00;99.90;;;;;;5103930;28;20039;-84
2023/01/27 04:23:01;;;;;;;5.38;2.42;;;4.00;99.90;;;;;;5114182;28;20046;-85
2023/01/27 04:29:08;;;;;;;7.65;2.53;;;3.90;99.90;;;;;;5109112;28;20092;-84
2023/01/27 04:32:11;;;;;;;5.13;2.17;;;3.90;99.90;;;;;;5081795;28;20558;-84
2023/01/27 04:35:01;;;;;;;3.80;2.55;;;3.90;99.90;;;;;;5099003;28;20039;-84
2023/01/27 04:41:20;;;;;;;4.85;2.60;;;3.90;99.90;;;;;;5109276;28;20149;-84
2023/01/27 04:43:46;;;;;;;5.68;2.70;;;3.90;99.90;;;;;;5081909;28;20130;-84
2023/01/27 04:46:12;;;;;;;8.43;3.20;;;3.90;99.90;;;;;;5065590;28;20209;-84
2023/01/27 04:48:48;;;;;;;3.80;2.50;;;3.90;99.90;;;;;;5048604;28;20104;-84
2023/01/27 04:55:42;;;;;;;4.07;2.40;;;3.90;99.90;;;;;;5116399;28;20046;-84
2023/01/27 05:01:49;;;;;;;7.95;3.40;;;3.80;99.90;;;;;;5116355;28;20034;-84
2023/01/27 05:07:55;;;;;;;6.00;3.03;;;3.80;99.90;;;;;;5105982;28;20037;-84
2023/01/27 05:14:18;;;;;;;7.18;2.50;;;3.80;99.90;;;;;;5095677;28;20093;-83
2023/01/27 05:27:41;;;;;;;9.82;2.35;;;3.80;99.90;;;;;;5094940;28;20077;-83
2023/01/27 05:30:07;;;;;;;7.05;2.45;;;3.80;99.90;;;;;;5077726;28;20052;-83
2023/01/27 05:32:33;;;;;;;5.93;2.53;;;3.80;99.90;;;;;;5043426;28;20152;-84
2023/01/27 05:34:58;;;;;;;3.50;2.63;;;3.80;99.90;;;;;;5061260;28;20474;-83
2023/01/27 05:37:24;;;;;;;5.40;2.72;;;3.80;99.90;;;;;;5077631;28;20473;-83
2023/01/27 05:39:50;;;;;;;6.63;3.10;;;3.70;99.90;;;;;;5044339;28;20109;-83
2023/01/27 05:42:18;;;;;;;4.88;2.38;;;3.70;99.90;;;;;;5061216;28;20063;-83
2023/01/27 05:48:25;;;;;;;5.93;3.20;;;3.70;99.90;;;;;;5062571;28;20035;-83
2023/01/27 05:50:58;;;;;;;5.43;3.40;;;3.70;99.90;;;;;;5019361;28;20449;-84
2023/01/27 05:53:24;;;;;;;10.57;3.97;;;3.70;99.90;;;;;;5053355;28;20052;-84
2023/01/27 05:55:52;;;;;;;8.35;5.38;;;3.70;99.90;;;;;;5046743;28;20059;-85
2023/01/27 05:58:19;;;;;;;11.23;5.18;;;3.70;99.90;;;;;;5048692;28;20394;-84
2023/01/27 06:00:48;;;;;;;8.00;5.40;;;3.70;99.90;;;;;;5036507;28;20211;-83
2023/01/27 06:03:14;;;;;;;11.32;5.80;;;3.60;99.90;;;;;;5039504;28;20136;-83
2023/01/27 06:05:49;;;;;;;11.65;6.22;;;3.70;99.90;;;;;;5036396;28;20072;-83
2023/01/27 06:08:14;;;;;;;8.90;5.88;;;3.70;99.90;;;;;;5052715;28;20048;-84
2023/01/27 06:10:40;;;;;;;10.70;6.60;;;3.70;99.90;;;;;;5079053;28;20385;-83
2023/01/27 06:13:06;;;;;;;10.00;6.85;;;3.70;99.90;;;;;;5059700;28;20040;-83
2023/01/27 06:19:13;;;;;;;12.80;6.20;;;3.60;99.90;;;;;;5087833;28;20175;-83
2023/01/27 06:21:38;;;;;;;9.35;5.57;;;3.60;99.90;;;;;;5029742;28;20079;-83
2023/01/27 06:24:04;;;;;;;10.23;5.50;;;3.60;99.90;;;;;;5056389;28;20045;-84
2023/01/27 06:26:30;;;;;;;10.85;5.60;;;3.60;99.90;;;;;;5056945;28;20067;-83
2023/01/27 06:28:59;;;;;;;9.52;5.65;;;3.60;99.90;;;;;;5066946;28;20128;-83
2023/01/27 06:31:28;;;;;;;9.00;5.30;;;3.60;99.90;;;;;;5093600;28;20048;-84
2023/01/27 06:33:54;;;;;;;22.63;15.82;;;3.70;99.90;;;;;;5060426;28;20048;-84
2023/01/27 06:36:29;;;;;;;6.80;5.43;;;3.60;99.90;;;;;;5043436;28;20048;-84
2023/01/27 06:38:55;;;;;;;7.90;5.15;;;3.60;99.90;;;;;;5050337;28;20127;-83
2023/01/27 06:41:21;;;;;;;8.38;5.03;;;3.60;99.90;;;;;;5057025;28;20135;-84
2023/01/27 06:43:50;;;;;;;11.77;5.00;;;3.70;99.90;;;;;;5067428;28;20040;-85
2023/01/27 06:46:15;;;;;;;7.38;5.18;;;3.60;99.90;;;;;;5056975;28;20405;-85
2023/01/27 06:48:41;;;;;;;9.77;4.72;;;3.60;99.90;;;;;;5059617;28;20058;-84
2023/01/27 06:51:12;;;;;;;7.80;4.30;;;3.50;99.90;;;;;;5062064;28;20054;-85
2023/01/27 06:54:18;;;;;;;6.47;4.20;;;3.60;99.90;;;;;;5046501;28;20040;-85
2023/01/27 06:56:47;;;;;;;6.95;4.00;;;3.60;99.90;;;;;;5078892;28;20050;-86
2023/01/27 06:59:18;;;;;;;6.40;3.83;;;3.50;99.90;;;;;;5096330;28;20186;-84
2023/01/27 07:01:49;;;;;;;6.30;3.70;;;3.50;99.90;;;;;;5079451;28;20130;-85
2023/01/27 07:04:25;;;;;;;7.20;3.88;;;3.50;99.90;;;;;;5058264;28;20058;-85
2023/01/27 07:06:53;;;;;;;5.03;3.60;;;3.50;99.90;;;;;;5078642;28;20050;-85
2023/01/27 07:09:26;;;;;;;6.85;3.67;;;3.50;99.90;;;;;;5092751;28;20046;-85
2023/01/27 07:11:57;;;;;;;7.18;3.70;;;3.50;99.90;;;;;;5078831;28;20043;-85
2023/01/27 07:14:43;;;;;;;6.60;3.55;;;3.60;99.90;;;;;;5095487;28;20051;-85
2023/01/27 07:17:21;;;;;;;4.05;3.10;;;3.50;99.90;;;;;;5092594;28;20047;-84
2023/01/27 07:19:47;;;;;;;7.55;3.70;;;3.50;99.90;;;;;;5075326;28;20516;-85
2023/01/27 07:22:18;;;;;;;8.95;3.88;;;3.50;99.90;;;;;;5066612;28;20051;-85
2023/01/27 07:24:50;;;;;;;6.82;3.67;;;3.50;99.90;;;;;;5043087;28;20066;-83
2023/01/27 07:27:21;;;;;;;7.53;4.20;;;3.50;99.90;;;;;;5075254;28;20093;-85
2023/01/27 07:30:10;;;;;;;7.40;3.60;;;3.40;99.90;;;;;;5028448;28;20115;-84
2023/01/27 07:32:49;;;;;;;5.82;3.15;;;3.40;99.90;;;;;;5049249;28;20056;-85
2023/01/27 07:38:11;;;;;;;5.80;3.20;;;3.20;99.90;;;;;;5078087;28;20055;-85
2023/01/27 07:44:16;;;;;;;;;;;;;;;;;;;;;
2023/01/27 07:50:27;;;;;;;;;;;;;;;;;;;;;
2023/01/27 07:54:11;;;;;;;6.60;3.10;;;3.40;99.90;;;;;;5011777;28;20053;-85
2023/01/27 07:56:43;;;;;;;6.82;3.28;;;3.40;99.90;;;;;;4995812;28;20054;-85
2023/01/27 07:59:10;;;;;;;7.78;2.80;;;3.40;99.90;;;;;;4998723;28;20202;-85
2023/01/27 08:01:59;;;;;;;4.43;3.25;;;3.50;99.90;;;;;;5003454;28;20574;-85
2023/01/27 08:04:25;;;;;;;6.03;2.50;;;3.50;99.90;;;;;;5014207;28;20136;-84
2023/01/27 08:06:51;;;;;;;6.72;3.00;;;3.50;99.90;;;;;;5028881;28;20127;-85
2023/01/27 08:09:17;;;;;;;9.43;2.72;;;3.50;99.90;;;;;;5063243;28;20136;-84
2023/01/27 08:11:42;;;;;;;6.10;2.75;;;3.60;99.90;;;;;;5078974;28;20040;-84
2023/01/27 08:14:08;;;;;;;4.57;2.85;;;3.60;99.90;;;;;;5082708;28;20048;-84
2023/01/27 08:16:34;;;;;;;6.28;3.47;;;3.60;99.90;;;;;;5074426;28;20557;-86
2023/01/27 08:19:00;;;;;;;7.03;3.35;;;3.70;99.90;;;;;;5093514;28;20118;-85
2023/01/27 08:21:31;;;;;;;7.15;3.25;;;3.70;99.90;;;;;;5078196;28;20048;-86
2023/01/27 08:24:02;;;;;;;7.25;3.45;;;3.70;99.90;;;;;;5074995;28;20040;-90
2023/01/27 08:38:04;;;;;;;6.45;3.40;;;3.80;99.90;;;;;;5104736;28;20093;-86
2023/01/27 08:40:30;;;;;;;9.52;3.45;;;3.80;99.90;;;;;;5084939;28;20397;-88
2023/01/27 08:42:56;;;;;;;7.03;3.35;;;3.80;99.90;;;;;;5065440;28;20059;-87
2023/01/27 08:45:22;;;;;;;7.25;3.50;;;3.90;99.90;;;;;;5039433;28;20193;-85
2023/01/27 08:47:48;;;;;;;8.38;3.75;;;3.80;99.90;;;;;;5063359;28;20052;-86
2023/01/27 08:50:14;;;;;;;7.57;3.50;;;3.90;99.90;;;;;;5061619;28;20085;-86
2023/01/27 08:52:39;;;;;;;8.02;3.92;;;3.90;99.90;;;;;;5066470;28;20043;-86
2023/01/27 08:55:05;;;;;;;8.57;4.20;;;4.00;99.90;;;;;;5081216;28;20044;-85
2023/01/27 08:57:34;;;;;;;10.30;4.70;;;4.00;99.90;;;;;;5092359;28;20105;-84
2023/01/27 09:00:03;;;;;;;7.80;3.88;;;4.10;99.90;;;;;;5062865;28;20409;-86
2023/01/27 09:02:31;;;;;;;9.27;4.22;;;4.00;99.90;;;;;;5061064;28;20048;-85
2023/01/27 09:04:59;;;;;;;11.05;4.22;;;4.00;99.90;;;;;;5079800;28;20123;-86
2023/01/27 09:07:25;;;;;;;11.95;4.35;;;4.10;99.90;;;;;;5056111;28;20055;-88
2023/01/27 09:09:54;;;;;;;9.23;3.90;;;4.10;99.90;;;;;;5074081;28;20059;-86
2023/01/27 09:12:20;;;;;;;9.07;4.38;;;4.00;99.90;;;;;;5078595;28;20058;-87
2023/01/27 09:14:52;;;;;;;6.07;3.88;;;4.10;99.90;;;;;;5096792;28;20035;-86
2023/01/27 09:17:23;;;;;;;6.93;4.22;;;4.20;99.90;;;;;;5073021;28;20052;-86
2023/01/27 09:19:59;;;;;;;6.50;4.50;;;4.30;99.90;;;;;;5079182;28;20046;-86
2023/01/27 09:22:35;;;;;;;;;;;4.20;99.90;;;;;;5084709;28;20036;-86
2023/01/27 09:25:22;;;;;;;7.03;4.50;;;4.30;99.90;;;;;;5070438;28;20383;-87
2023/01/27 09:27:48;;;;;;;10.18;4.50;;;4.30;99.90;;;;;;5072353;28;20052;-87
2023/01/27 09:30:20;;;;;;;8.90;4.82;;;4.40;99.90;;;;;;5090673;28;20139;-86
2023/01/27 09:32:46;;;;;;;13.32;4.72;;;4.50;99.90;;;;;;5096901;28;20047;-85
2023/01/27 09:35:22;;;;;;;8.57;4.55;;;4.50;99.90;;;;;;5084440;28;20040;-86
2023/01/27 09:37:57;;;;;;;9.48;5.50;;;4.50;99.90;;;;;;5085835;28;20052;-86
2023/01/27 09:40:51;;;;;;;10.05;4.80;;;4.60;99.90;;;;;;5078082;28;20476;-85
2023/01/27 09:43:49;;;;;;;10.02;4.63;;;4.60;99.90;;;;;;5087157;28;20054;-86
2023/01/27 09:46:59;;;;;;;6.38;3.75;;;4.60;99.90;;;;;;5043401;28;20067;-86
2023/01/27 09:49:50;;;;;;;6.15;3.40;;;4.70;99.90;;;;;;5056093;28;20055;-87
2023/01/27 09:52:45;;;;;;;6.22;3.28;;;4.70;99.90;;;;;;5057976;28;20056;-86
2023/01/27 09:55:38;;;;;;;5.65;3.58;;;4.60;99.90;;;;;;5061296;28;20051;-85
2023/01/27 09:58:40;;;;;;;6.88;3.42;;;4.70;99.90;;;;;;5095154;28;20083;-86
2023/01/27 10:01:28;;;;;;;6.45;3.97;;;4.70;99.90;;;;;;5079619;28;20040;-89
2023/01/27 10:04:19;;;;;;;7.10;3.42;;;4.60;99.90;;;;;;5078862;28;20104;-86
2023/01/27 10:07:24;;;;;;;9.40;3.63;;;4.40;99.90;;;;;;5079460;28;20055;-86
2023/01/27 10:10:04;;;;;;;5.45;3.38;;;4.40;99.90;;;;;;5074545;28;20051;-87
2023/01/27 10:13:07;;;;;;;6.05;2.90;;;4.50;99.90;;;;;;5082328;28;20043;-85
2023/01/27 10:15:55;;;;;;;6.60;3.03;;;4.60;99.90;;;;;;5077567;28;20074;-84
2023/01/27 10:18:36;;;;;;;7.53;3.30;;;4.70;99.90;;;;;;5048254;28;20464;-86
2023/01/27 10:21:24;;;;;;;8.10;3.35;;;4.70;99.90;;;;;;5069639;28;20044;-87
2023/01/27 10:24:03;;;;;;;4.90;2.80;;;4.70;99.90;;;;;;5091015;28;20488;-86
2023/01/27 10:26:57;;;;;;;5.60;3.03;;;4.70;99.90;;;;;;5086877;28;20054;-87
2023/01/27 10:29:48;;;;;;;5.05;2.90;;;4.70;99.90;;;;;;5106763;28;20181;-87
2023/01/27 10:32:28;;;;;;;5.68;3.30;;;4.60;99.90;;;;;;5065615;28;20497;-86
2023/01/27 10:35:14;;;;;;;5.05;3.05;;;4.70;99.90;;;;;;5070110;28;20074;-87
2023/01/27 10:37:54;;;;;;;4.90;2.53;;;4.70;99.90;;;;;;5055069;28;20154;-87
2023/01/27 10:40:28;;;;;;;7.45;3.05;;;4.70;99.90;;;;;;5070876;28;20800;-86
2023/01/27 10:43:16;;;;;;;7.00;2.80;;;4.80;99.90;;;;;;5074181;28;20079;-86
2023/01/27 10:46:01;;;;;;;3.50;2.63;;;4.90;99.90;;;;;;5068301;28;20607;-87
2023/01/27 10:48:36;;;;;;;3.80;2.33;;;5.00;99.90;;;;;;5046634;28;20071;-88
2023/01/27 10:51:27;;;;;;;3.50;2.22;;;5.00;99.90;;;;;;5057344;28;20096;-89
2023/01/27 10:54:05;;;;;;;3.53;2.22;;;5.00;99.90;;;;;;5059430;28;20512;-87
2023/01/27 10:56:40;;;;;;;6.20;2.38;;;5.00;99.90;;;;;;5055081;28;20048;-87
2023/01/27 10:59:39;;;;;;;2.45;2.00;;;5.00;99.90;;;;;;5066996;28;20044;-86
2023/01/27 11:02:18;;;;;;;4.32;2.00;;;5.00;99.90;;;;;;5047799;28;20044;-86
2023/01/27 11:04:50;;;;;;;2.13;1.92;;;4.90;99.90;;;;;;5055024;28;20402;-86
2023/01/27 11:07:21;;;;;;;3.72;1.88;;;4.90;99.90;;;;;;5074879;28;20051;-86
2023/01/27 11:09:54;;;;;;;2.15;1.90;;;4.90;99.90;;;;;;5071713;28;20444;-85
2023/01/27 11:12:33;;;;;;;2.60;2.10;;;4.80;99.90;;;;;;5055982;28;20119;-86
2023/01/27 11:15:01;;;;;;;2.80;2.10;;;4.70;99.90;;;;;;5065032;28;20400;-85
2023/01/27 11:17:36;;;;;;;4.88;2.15;;;4.70;99.90;;;;;;5057820;28;20151;-86
2023/01/27 11:20:23;;;;;;;2.47;2.10;;;4.70;99.90;;;;;;5075586;28;20051;-86
2023/01/27 11:23:03;;;;;;;4.03;2.45;;;4.70;99.90;;;;;;5055271;28;20295;-85
2023/01/27 11:26:29;;;;;;;4.60;2.30;;;4.60;99.90;;;;;;5092019;28;20405;-86
2023/01/27 11:29:16;;;;;;;3.67;2.22;;;4.70;99.90;;;;;;5056223;28;20056;-81
2023/01/27 11:32:17;;;;;;;3.50;2.80;;;4.70;99.90;;;;;;5067710;28;20056;-85
2023/01/27 11:38:24;;;;;;;2.65;2.33;;;4.70;99.90;;;;;;5079134;28;20031;-86
2023/01/27 11:40:52;;;;;;;2.70;2.45;;;4.70;99.90;;;;;;5079530;28;20070;-85
2023/01/27 11:43:22;;;;;;;3.92;2.97;;;4.70;99.90;;;;;;5079437;28;20069;-84
2023/01/27 11:45:51;;;;;;;3.65;2.60;;;4.60;99.90;;;;;;5079585;28;20151;-85
2023/01/27 11:48:18;;;;;;;3.00;2.70;;;4.60;99.90;;;;;;5078094;28;20484;-85
2023/01/27 11:50:45;;;;;;;3.95;3.05;;;4.70;99.90;;;;;;5046920;28;20048;-85
2023/01/27 11:53:21;;;;;;;3.28;2.97;;;4.60;99.90;;;;;;5096192;28;20037;-85
2023/01/27 11:55:56;;;;;;;3.25;2.90;;;4.70;99.90;;;;;;5095312;28;20056;-85
2023/01/27 11:58:25;;;;;;;3.53;3.20;;;4.70;99.90;;;;;;5084399;28;20041;-85
2023/01/27 12:01:02;;;;;;;3.70;3.15;;;4.70;99.90;;;;;;5077025;28;20091;-85
2023/01/27 12:03:48;;;;;;;3.72;2.85;;;4.70;99.90;;;;;;5073467;28;20139;-86
2023/01/27 12:06:31;;;;;;;3.72;2.97;;;4.70;99.90;;;;;;5090782;28;20117;-86
2023/01/27 12:08:57;;;;;;;3.40;3.03;;;4.70;99.90;;;;;;5059292;28;20127;-85
2023/01/27 12:11:24;;;;;;;3.55;2.30;;;4.70;99.90;;;;;;5025489;28;20131;-86
2023/01/27 12:13:55;;;;;;;2.75;2.55;;;4.70;99.90;;;;;;5064961;28;20109;-85
2023/01/27 12:16:26;;;;;;;2.53;2.20;;;4.70;99.90;;;;;;5082075;28;20143;-88
2023/01/27 12:18:57;;;;;;;3.80;2.50;;;4.70;99.90;;;;;;5080619;28;20052;-86
2023/01/27 12:21:43;;;;;;;4.82;2.50;;;4.70;99.90;;;;;;5060939;28;20055;-85
2023/01/27 12:24:35;;;;;;;2.88;2.50;;;4.70;99.90;;;;;;5076745;28;20512;-85
2023/01/27 12:27:02;;;;;;;4.40;2.75;;;4.70;99.90;;;;;;5094226;28;20051;-85
2023/01/27 12:29:41;;;;;;;2.60;2.20;;;4.60;99.90;;;;;;5084193;28;20117;-85
2023/01/27 12:32:22;;;;;;;2.95;2.65;;;4.60;99.90;;;;;;5057934;28;20052;-85
2023/01/27 12:34:55;;;;;;;4.40;2.30;;;4.60;99.90;;;;;;5075174;28;20054;-85
2023/01/27 12:37:30;;;;;;;3.10;2.70;;;4.60;99.90;;;;;;5058789;28;20470;-85
2023/01/27 12:40:02;;;;;;;3.10;2.57;;;4.60;99.90;;;;;;5061887;28;20055;-85
2023/01/27 12:42:46;;;;;;;3.05;2.47;;;4.60;99.90;;;;;;5097141;28;20090;-85
2023/01/27 12:45:21;;;;;;;2.67;2.42;;;4.60;99.90;;;;;;5070618;28;20056;-84
2023/01/27 12:48:09;;;;;;;2.35;2.15;;;4.60;99.90;;;;;;5089423;28;20051;-86
2023/01/27 12:50:36;;;;;;;2.78;2.47;;;4.60;99.90;;;;;;5077509;28;20048;-81
2023/01/27 12:53:14;;;;;;;2.10;1.88;;;4.60;99.90;;;;;;5061707;28;20036;-80
2023/01/27 12:56:03;;;;;;;2.38;1.95;;;4.60;99.90;;;;;;5072038;28;20105;-83
2023/01/27 12:58:37;;;;;;;2.92;2.05;;;4.60;99.90;;;;;;5070048;28;20043;-87
2023/01/27 13:01:20;;;;;;;4.25;1.70;;;4.60;99.90;;;;;;5075652;28;20051;-85
2023/01/27 13:03:56;;;;;;;2.03;1.65;;;4.60;99.90;;;;;;5066163;28;20040;-84
2023/01/27 13:06:31;;;;;;;;;;;4.60;99.90;;;;;;5072763;28;20045;-85
2023/01/27 13:08:58;;;;;;;2.33;1.60;;;4.60;99.90;;;;;;5062302;28;19924;-85
2023/01/27 13:11:34;;;;;;;3.25;1.60;;;4.60;99.90;;;;;;5070118;28;20764;-85
2023/01/27 13:13:59;;;;;;;1.50;1.40;;;4.60;99.90;;;;;;5059936;28;20048;-85
2023/01/27 13:16:28;;;;;;;1.52;1.40;;;4.60;99.90;;;;;;5032483;28;20130;-85
2023/01/27 13:18:59;;;;;;;1.30;1.15;;;4.60;99.90;;;;;;5075794;28;20139;-86
2023/01/27 13:21:36;;;;;;;1.25;1.05;;;4.60;99.90;;;;;;5067270;28;20060;-85
2023/01/27 13:24:14;;;;;;;1.20;1.10;;;4.60;99.90;;;;;;5077473;28;20047;-85
2023/01/27 13:26:40;;;;;;;2.45;1.48;;;4.60;99.90;;;;;;5056684;28;20486;-85
2023/01/27 13:29:09;;;;;;;2.72;1.70;;;4.60;99.90;;;;;;5045181;28;20086;-85
2023/01/27 13:32:15;;;;;;;2.63;1.70;;;4.70;99.90;;;;;;5082277;28;20460;-85
2023/01/27 13:35:05;;;;;;;5.30;2.00;;;4.60;99.90;;;;;;5036932;28;20479;-83
2023/01/27 13:41:24;;;;;;;1.75;1.65;;;4.60;99.90;;;;;;5090139;28;20077;-83
2023/01/27 13:44:04;;;;;;;2.00;1.75;;;4.70;99.90;;;;;;5093201;28;20498;-82
2023/01/27 13:46:35;;;;;;;1.65;1.55;;;4.70;99.90;;;;;;5077398;28;20054;-83
2023/01/27 13:49:30;;;;;;;2.55;1.73;;;4.70;99.90;;;;;;5093805;28;20058;-82
2023/01/27 13:55:41;;;;;;;4.10;2.60;;;4.60;99.90;;;;;;5000025;28;20069;-90
2023/01/27 13:58:13;;;;;;;2.80;2.50;;;4.60;99.90;;;;;;5056918;28;20037;-82
2023/01/27 14:01:14;;;;;;;5.25;4.47;;;4.50;99.90;;;;;;5092327;28;20041;-83
2023/01/27 14:07:38;;;;;;;7.78;7.07;;;4.50;99.90;;;;;;5074401;28;20393;-83
2023/01/27 14:10:18;;;;;;;4.63;4.13;;;4.50;99.90;;;;;;5057206;28;20076;-83
2023/01/27 14:16:49;;;;;;;4.80;3.90;;;4.40;99.90;;;;;;4992859;28;20054;-83
2023/01/27 14:23:33;;;;;;;4.57;3.80;;;4.30;99.90;;;;;;5074161;28;20051;-83
2023/01/27 14:29:49;;;;;;;4.60;4.00;;;4.20;99.90;;;;;;5074065;28;20035;-83
2023/01/27 14:36:41;;;;;;;5.03;4.05;;;4.20;99.90;;;;;;5073589;28;20086;-82
2023/01/27 14:39:53;;;;;;;4.85;4.45;;;4.20;99.90;;;;;;5056257;28;20048;-82
2023/01/27 14:46:40;;;;;;;5.70;3.85;;;4.10;99.90;;;;;;4987432;28;20046;-82
2023/01/27 14:53:27;;;;;;;5.68;4.53;;;4.10;99.90;;;;;;4985633;28;20091;-82
2023/01/27 14:59:51;;;;;;;4.03;3.63;;;4.10;99.90;;;;;;5057293;28;20495;-82
2023/01/27 15:02:55;;;;;;;4.80;3.72;;;4.00;99.90;;;;;;5059346;28;20044;-82
2023/01/27 15:09:24;;;;;;;6.60;4.13;;;4.00;99.90;;;;;;5092277;28;20120;-83
2023/01/27 15:19:48;;;;;;;3.72;3.13;;;3.90;99.90;;;;;;5078515;28;20081;-83
2023/01/27 15:22:51;;;;;;;5.55;3.47;;;3.90;99.90;;;;;;4959815;28;20120;-83
2023/01/27 15:25:32;;;;;;;5.15;4.00;;;3.80;99.90;;;;;;4978543;28;20046;-82
2023/01/27 15:28:39;;;;;;;5.80;3.83;;;3.80;99.90;;;;;;5001477;28;20075;-82
2023/01/27 15:31:37;;;;;;;5.05;4.00;;;3.70;99.90;;;;;;5013451;28;20136;-83
2023/01/27 15:34:02;;;;;;;5.78;3.95;;;3.70;99.90;;;;;;4996183;28;20061;-83
2023/01/27 15:36:29;;;;;;;6.30;5.07;;;3.70;99.90;;;;;;4995105;28;20050;-83
2023/01/27 15:46:23;;;;;;;15.95;12.35;;;3.70;99.90;;;;;;4991858;28;20050;-82
2023/01/27 15:48:49;;;;;;;8.23;6.97;;;3.60;99.90;;;;;;4980612;28;20452;-82
2023/01/27 15:51:20;;;;;;;4.78;3.67;;;3.70;99.90;;;;;;5052369;28;20048;-83
2023/01/27 15:53:55;;;;;;;6.97;5.00;;;3.60;99.90;;;;;;5064829;28;20394;-84
2023/01/27 15:56:42;;;;;;;45.77;23.70;;;3.70;99.90;;;;;;5076151;28;20543;-84
2023/01/27 15:59:17;;;;;;;20.75;12.30;;;3.60;99.90;;;;;;5075429;28;20097;-83
2023/01/27 16:01:45;;;;;;;11.57;6.20;;;3.60;99.90;;;;;;5075387;28;20484;-83
2023/01/27 16:04:25;;;;;;;18.70;12.40;;;3.60;99.90;;;;;;5075427;28;20051;-83
2023/01/27 16:07:01;;;;;;;3.80;3.40;;;3.60;99.90;;;;;;5075353;28;20044;-83
2023/01/27 16:10:00;;;;;;;6.53;5.78;;;3.60;99.90;;;;;;5059596;28;20097;-83
2023/01/27 16:16:18;;;;;;;5.47;4.25;;;3.50;99.90;;;;;;5093661;28;20039;-82
2023/01/27 16:23:05;;;;;;;13.45;9.20;;;3.50;99.90;;;;;;5096604;28;20614;-82
2023/01/27 16:25:43;;;;;;;9.80;6.22;;;3.50;99.90;;;;;;5079754;28;20046;-83
2023/01/27 16:33:04;;;;;;;6.93;5.05;;;3.50;99.90;;;;;;5035761;28;20048;-82
2023/01/27 16:44:27;;;;;;;5.50;4.80;;;3.40;99.90;;;;;;5034141;28;20148;-82
2023/01/27 16:47:04;;;;;;;3.85;3.17;;;3.40;99.90;;;;;;5017603;28;20049;-82
2023/01/27 16:49:50;;;;;;;6.63;5.40;;;3.30;99.90;;;;;;5063834;28;20135;-83
2023/01/27 16:52:25;;;;;;;5.18;4.68;;;3.40;99.90;;;;;;5072519;28;20048;-85
2023/01/27 16:54:53;;;;;;;8.20;7.20;;;3.40;99.90;;;;;;5038995;28;20517;-82
2023/01/27 16:57:30;;;;;;;5.88;5.28;;;3.40;99.90;;;;;;5038214;28;20092;-82
2023/01/27 16:59:58;;;;;;;4.90;3.70;;;3.50;99.90;;;;;;5028547;28;20512;-85
2023/01/27 17:02:27;;;;;;;4.20;3.80;;;3.40;99.90;;;;;;5041295;28;20153;-83
2023/01/27 17:04:57;;;;;;;5.03;3.92;;;3.50;99.90;;;;;;5021492;28;20045;-82
2023/01/27 17:07:24;;;;;;;5.65;4.40;;;3.40;99.90;;;;;;5056664;28;20037;-83
2023/01/27 17:09:51;;;;;;;7.10;5.68;;;3.50;99.90;;;;;;5058066;28;20131;-82
2023/01/27 17:12:42;;;;;;;5.68;4.72;;;3.40;99.90;;;;;;5036214;28;20538;-83
2023/01/27 17:15:17;;;;;;;9.88;5.75;;;3.40;99.90;;;;;;5055345;28;20141;-83
2023/01/27 17:17:42;;;;;;;7.13;6.43;;;3.40;99.90;;;;;;5050715;28;20048;-83
2023/01/27 17:20:21;;;;;;;6.53;4.88;;;3.40;99.90;;;;;;5047783;28;20048;-83
2023/01/27 17:22:52;;;;;;;5.95;4.50;;;3.40;99.90;;;;;;5049643;28;20044;-83
2023/01/27 17:25:28;;;;;;;5.85;4.68;;;3.50;99.90;;;;;;5042068;28;20052;-84
2023/01/27 17:27:56;;;;;;;7.20;5.10;;;3.40;99.90;;;;;;5052725;28;20133;-83
2023/01/27 17:30:25;;;;;;;5.70;5.15;;;3.40;99.90;;;;;;5025602;28;20049;-84
2023/01/27 17:32:55;;;;;;;5.50;4.32;;;3.40;99.90;;;;;;5030522;28;20033;-81
2023/01/27 17:35:31;;;;;;;5.15;4.53;;;3.30;99.90;;;;;;5050815;28;20585;-82
2023/01/27 17:38:06;;;;;;;;;;;3.40;99.90;;;;;;5059762;28;20389;-82
2023/01/27 17:40:38;;;;;;;5.72;4.85;;;3.30;99.90;;;;;;5066365;28;19928;-82
2023/01/27 17:43:21;;;;;;;5.57;4.60;;;3.30;99.90;;;;;;5066742;28;20044;-86
2023/01/27 17:45:47;;;;;;;6.85;5.22;;;3.30;99.90;;;;;;5049772;28;20056;-83
2023/01/27 17:48:14;;;;;;;6.00;5.40;;;3.30;99.90;;;;;;5024183;28;20048;-79
2023/01/27 17:50:44;;;;;;;6.35;4.97;;;3.30;99.90;;;;;;5031270;28;20051;-80